# Tabular Observed and Forecast Hydrograph Information
#
# Location: Cherokee Canal - Richvale (RCVC1)
#
# File Generation Time: 09/03/2026 at 07:10 AM PDT
# Data Interval: 1 Hour
#
# Most Recent Date & Time of Maximum Observed: 08/31/2026 at 09:00 PM PDT
# Maximum Observed Stage: 95.59 Feet
# Maximum Observed Flow: 45 cfs
#
# Earliest Date & Time of Maximum Forecast: 09/04/2026 at 05:00 AM PDT
# Maximum Forecast Stage: 95.51 Feet
# Maximum Forecast Flow: 39 cfs
#
# OBSERVED
#
# Date & Time (Local) Stage (Feet) Flow (cfs) Trend Observed Status
# ---------------------------------------------------------------------------------
08/29/2026 07 AM PDT 95.35 28 Normal
08/29/2026 08 AM PDT 95.34 27 - Normal
08/29/2026 09 AM PDT 95.34 27 0 Normal
08/29/2026 10 AM PDT 95.33 27 - Normal
08/29/2026 11 AM PDT 95.32 26 - Normal
08/29/2026 12 PM PDT 95.30 25 - Normal
08/29/2026 01 PM PDT 95.29 24 - Normal
08/29/2026 02 PM PDT 95.29 24 0 Normal
08/29/2026 03 PM PDT 95.28 24 - Normal
08/29/2026 04 PM PDT 95.27 23 - Normal
08/29/2026 05 PM PDT 95.26 22 - Normal
08/29/2026 06 PM PDT 95.26 22 0 Normal
08/29/2026 07 PM PDT 95.26 22 0 Normal
08/29/2026 08 PM PDT 95.25 22 - Normal
08/29/2026 09 PM PDT 95.25 22 0 Normal
08/29/2026 10 PM PDT 95.25 22 0 Normal
08/29/2026 11 PM PDT 95.26 22 + Normal
08/30/2026 12 AM PDT 95.26 22 0 Normal
08/30/2026 01 AM PDT 95.27 23 + Normal
08/30/2026 02 AM PDT 95.28 24 + Normal
08/30/2026 03 AM PDT 95.29 24 + Normal
08/30/2026 04 AM PDT 95.30 25 + Normal
08/30/2026 05 AM PDT 95.31 26 + Normal
08/30/2026 06 AM PDT 95.32 26 + Normal
08/30/2026 07 AM PDT 95.33 27 + Normal
08/30/2026 08 AM PDT 95.35 28 + Normal
08/30/2026 09 AM PDT 95.36 28 + Normal
08/30/2026 10 AM PDT 95.37 29 + Normal
08/30/2026 11 AM PDT 95.37 29 0 Normal
08/30/2026 12 PM PDT 95.37 29 0 Normal
08/30/2026 01 PM PDT 95.37 29 0 Normal
08/30/2026 02 PM PDT 95.37 29 0 Normal
08/30/2026 03 PM PDT 95.37 29 0 Normal
08/30/2026 04 PM PDT 95.37 29 0 Normal
08/30/2026 05 PM PDT 95.37 29 0 Normal
08/30/2026 06 PM PDT 95.37 29 0 Normal
08/30/2026 07 PM PDT 95.36 28 - Normal
08/30/2026 08 PM PDT 95.36 28 0 Normal
08/30/2026 09 PM PDT 95.36 28 0 Normal
08/30/2026 10 PM PDT 95.35 28 - Normal
08/30/2026 11 PM PDT 95.35 28 0 Normal
08/31/2026 12 AM PDT 95.34 27 - Normal
08/31/2026 01 AM PDT 95.34 27 0 Normal
08/31/2026 02 AM PDT 95.33 27 - Normal
08/31/2026 03 AM PDT 95.32 26 - Normal
08/31/2026 04 AM PDT 95.31 26 - Normal
08/31/2026 05 AM PDT 95.31 26 0 Normal
08/31/2026 06 AM PDT 95.30 25 - Normal
08/31/2026 07 AM PDT 95.30 25 0 Normal
08/31/2026 08 AM PDT 95.30 25 0 Normal
08/31/2026 09 AM PDT 95.31 26 + Normal
08/31/2026 10 AM PDT 95.31 26 0 Normal
08/31/2026 11 AM PDT 95.31 26 0 Normal
08/31/2026 12 PM PDT 95.32 26 + Normal
08/31/2026 01 PM PDT 95.36 28 + Normal
08/31/2026 02 PM PDT 95.39 30 + Normal
08/31/2026 03 PM PDT 95.40 31 + Normal
08/31/2026 04 PM PDT 95.41 32 + Normal
08/31/2026 05 PM PDT 95.45 34 + Normal
08/31/2026 06 PM PDT 95.50 38 + Normal
08/31/2026 07 PM PDT 95.55 42 + Normal
08/31/2026 08 PM PDT 95.58 44 + Normal
08/31/2026 09 PM PDT 95.59 45 + Normal
08/31/2026 10 PM PDT 95.58 44 - Normal
08/31/2026 11 PM PDT 95.57 43 - Normal
09/01/2026 12 AM PDT 95.55 42 - Normal
09/01/2026 01 AM PDT 95.53 40 - Normal
09/01/2026 02 AM PDT 95.51 39 - Normal
09/01/2026 03 AM PDT 95.48 36 - Normal
09/01/2026 04 AM PDT 95.46 35 - Normal
09/01/2026 05 AM PDT 95.45 34 - Normal
09/01/2026 06 AM PDT 95.43 33 - Normal
09/01/2026 07 AM PDT 95.41 32 - Normal
09/01/2026 08 AM PDT 95.40 31 - Normal
09/01/2026 09 AM PDT 95.39 30 - Normal
09/01/2026 10 AM PDT 95.38 30 - Normal
09/01/2026 11 AM PDT 95.38 30 0 Normal
09/01/2026 12 PM PDT 95.37 29 - Normal
09/01/2026 01 PM PDT 95.36 28 - Normal
09/01/2026 02 PM PDT 95.36 28 0 Normal
09/01/2026 03 PM PDT 95.35 28 - Normal
09/01/2026 04 PM PDT 95.35 28 0 Normal
09/01/2026 05 PM PDT 95.36 28 + Normal
09/01/2026 06 PM PDT 95.37 29 + Normal
09/01/2026 07 PM PDT 95.38 30 + Normal
09/01/2026 08 PM PDT 95.39 30 + Normal
09/01/2026 09 PM PDT 95.40 31 + Normal
09/01/2026 10 PM PDT 95.40 31 0 Normal
09/01/2026 11 PM PDT 95.42 32 + Normal
09/02/2026 12 AM PDT 95.45 34 + Normal
09/02/2026 01 AM PDT 95.48 36 + Normal
09/02/2026 02 AM PDT 95.52 39 + Normal
09/02/2026 03 AM PDT 95.54 41 + Normal
09/02/2026 04 AM PDT 95.56 43 + Normal
09/02/2026 05 AM PDT 95.57 43 + Normal
09/02/2026 06 AM PDT 95.56 43 - Normal
09/02/2026 07 AM PDT 95.56 43 0 Normal
09/02/2026 08 AM PDT 95.54 41 - Normal
09/02/2026 09 AM PDT 95.53 40 - Normal
09/02/2026 10 AM PDT 95.51 39 - Normal
09/02/2026 11 AM PDT 95.49 37 - Normal
09/02/2026 12 PM PDT 95.47 36 - Normal
09/02/2026 01 PM PDT 95.45 34 - Normal
09/02/2026 02 PM PDT 95.42 32 - Normal
09/02/2026 03 PM PDT 95.40 31 - Normal
09/02/2026 04 PM PDT 95.38 30 - Normal
09/02/2026 05 PM PDT 95.36 28 - Normal
09/02/2026 06 PM PDT 95.35 28 - Normal
09/02/2026 07 PM PDT 95.33 27 - Normal
09/02/2026 08 PM PDT 95.32 26 - Normal
09/02/2026 09 PM PDT 95.30 25 - Normal
09/02/2026 10 PM PDT 95.29 24 - Normal
09/02/2026 11 PM PDT 95.29 24 0 Normal
09/03/2026 12 AM PDT 95.28 24 - Normal
09/03/2026 01 AM PDT 95.28 24 0 Normal
09/03/2026 02 AM PDT 95.27 23 - Normal
09/03/2026 03 AM PDT 95.26 22 - Normal
09/03/2026 04 AM PDT 95.26 22 0 Normal
09/03/2026 05 AM PDT 95.26 22 0 Normal
09/03/2026 06 AM PDT 95.26 22 0 Normal
09/03/2026 07 AM PDT 95.26 22 0 Normal
#
# FORECAST
#
# Date & Time (Local) Stage (Feet) Flow (cfs) Trend Forecast Status
# ---------------------------------------------------------------------------------
09/03/2026 08 AM PDT 95.26 22 Normal
09/03/2026 09 AM PDT 95.26 22 0 Normal
09/03/2026 10 AM PDT 95.26 22 0 Normal
09/03/2026 11 AM PDT 95.26 22 0 Normal
09/03/2026 12 PM PDT 95.26 22 0 Normal
09/03/2026 01 PM PDT 95.26 22 0 Normal
09/03/2026 02 PM PDT 95.26 22 0 Normal
09/03/2026 03 PM PDT 95.26 22 0 Normal
09/03/2026 04 PM PDT 95.26 22 0 Normal
09/03/2026 05 PM PDT 95.27 23 + Normal
09/03/2026 06 PM PDT 95.28 24 + Normal
09/03/2026 07 PM PDT 95.30 25 + Normal
09/03/2026 08 PM PDT 95.32 26 + Normal
09/03/2026 09 PM PDT 95.34 27 + Normal
09/03/2026 10 PM PDT 95.37 29 + Normal
09/03/2026 11 PM PDT 95.39 30 + Normal
09/04/2026 12 AM PDT 95.41 32 + Normal
09/04/2026 01 AM PDT 95.44 34 + Normal
09/04/2026 02 AM PDT 95.47 36 + Normal
09/04/2026 03 AM PDT 95.49 37 + Normal
09/04/2026 04 AM PDT 95.50 38 + Normal
09/04/2026 05 AM PDT 95.51 39 + Normal
09/04/2026 06 AM PDT 95.50 38 - Normal
09/04/2026 07 AM PDT 95.48 36 - Normal
09/04/2026 08 AM PDT 95.45 34 - Normal
09/04/2026 09 AM PDT 95.43 33 - Normal
09/04/2026 10 AM PDT 95.40 31 - Normal
09/04/2026 11 AM PDT 95.38 30 - Normal
09/04/2026 12 PM PDT 95.35 28 - Normal
09/04/2026 01 PM PDT 95.33 27 - Normal
09/04/2026 02 PM PDT 95.31 26 - Normal
09/04/2026 03 PM PDT 95.30 25 - Normal
09/04/2026 04 PM PDT 95.29 24 - Normal
09/04/2026 05 PM PDT 95.28 24 - Normal
09/04/2026 06 PM PDT 95.27 23 - Normal
09/04/2026 07 PM PDT 95.27 23 0 Normal
09/04/2026 08 PM PDT 95.26 22 - Normal
09/04/2026 09 PM PDT 95.26 22 0 Normal
09/04/2026 10 PM PDT 95.26 22 0 Normal
09/04/2026 11 PM PDT 95.25 22 - Normal
09/05/2026 12 AM PDT 95.25 22 0 Normal
09/05/2026 01 AM PDT 95.25 22 0 Normal
09/05/2026 02 AM PDT 95.25 22 0 Normal
09/05/2026 03 AM PDT 95.25 22 0 Normal
09/05/2026 04 AM PDT 95.25 22 0 Normal
09/05/2026 05 AM PDT 95.25 22 0 Normal
09/05/2026 06 AM PDT 95.25 22 0 Normal
09/05/2026 07 AM PDT 95.25 22 0 Normal
09/05/2026 08 AM PDT 95.25 22 0 Normal
09/05/2026 09 AM PDT 95.25 22 0 Normal
09/05/2026 10 AM PDT 95.25 22 0 Normal
09/05/2026 11 AM PDT 95.25 22 0 Normal
09/05/2026 12 PM PDT 95.25 22 0 Normal
09/05/2026 01 PM PDT 95.25 22 0 Normal
09/05/2026 02 PM PDT 95.25 22 0 Normal
09/05/2026 03 PM PDT 95.25 22 0 Normal
09/05/2026 04 PM PDT 95.25 22 0 Normal
09/05/2026 05 PM PDT 95.25 22 0 Normal
09/05/2026 06 PM PDT 95.25 22 0 Normal
09/05/2026 07 PM PDT 95.25 22 0 Normal
09/05/2026 08 PM PDT 95.25 22 0 Normal
09/05/2026 09 PM PDT 95.25 22 0 Normal
09/05/2026 10 PM PDT 95.25 22 0 Normal
09/05/2026 11 PM PDT 95.25 22 0 Normal
09/06/2026 12 AM PDT 95.25 22 0 Normal
09/06/2026 01 AM PDT 95.25 22 0 Normal
09/06/2026 02 AM PDT 95.25 22 0 Normal
09/06/2026 03 AM PDT 95.25 22 0 Normal
09/06/2026 04 AM PDT 95.25 22 0 Normal
09/06/2026 05 AM PDT 95.25 22 0 Normal
09/06/2026 06 AM PDT 95.25 22 0 Normal
09/06/2026 07 AM PDT 95.25 22 0 Normal
09/06/2026 08 AM PDT 95.25 22 0 Normal
09/06/2026 09 AM PDT 95.25 22 0 Normal
09/06/2026 10 AM PDT 95.25 22 0 Normal
09/06/2026 11 AM PDT 95.25 22 0 Normal
09/06/2026 12 PM PDT 95.25 22 0 Normal
09/06/2026 01 PM PDT 95.25 22 0 Normal
09/06/2026 02 PM PDT 95.25 22 0 Normal
09/06/2026 03 PM PDT 95.25 22 0 Normal
09/06/2026 04 PM PDT 95.25 22 0 Normal
09/06/2026 05 PM PDT 95.25 22 0 Normal
09/06/2026 06 PM PDT 95.24 21 - Normal
09/06/2026 07 PM PDT 95.24 21 0 Normal
09/06/2026 08 PM PDT 95.24 21 0 Normal
09/06/2026 09 PM PDT 95.24 21 0 Normal
09/06/2026 10 PM PDT 95.24 21 0 Normal
09/06/2026 11 PM PDT 95.24 21 0 Normal
09/07/2026 12 AM PDT 95.24 21 0 Normal
09/07/2026 01 AM PDT 95.24 21 0 Normal
09/07/2026 02 AM PDT 95.24 21 0 Normal
09/07/2026 03 AM PDT 95.24 21 0 Normal
09/07/2026 04 AM PDT 95.24 21 0 Normal
09/07/2026 05 AM PDT 95.24 21 0 Normal
09/07/2026 06 AM PDT 95.24 21 0 Normal
09/07/2026 07 AM PDT 95.24 21 0 Normal
09/07/2026 08 AM PDT 95.24 21 0 Normal
09/07/2026 09 AM PDT 95.24 21 0 Normal
09/07/2026 10 AM PDT 95.24 21 0 Normal
09/07/2026 11 AM PDT 95.24 21 0 Normal
09/07/2026 12 PM PDT 95.24 21 0 Normal
09/07/2026 01 PM PDT 95.24 21 0 Normal
09/07/2026 02 PM PDT 95.24 21 0 Normal
09/07/2026 03 PM PDT 95.24 21 0 Normal
09/07/2026 04 PM PDT 95.24 21 0 Normal
09/07/2026 05 PM PDT 95.24 21 0 Normal
09/07/2026 06 PM PDT 95.23 21 - Normal
09/07/2026 07 PM PDT 95.23 21 0 Normal
09/07/2026 08 PM PDT 95.23 21 0 Normal
09/07/2026 09 PM PDT 95.23 21 0 Normal
09/07/2026 10 PM PDT 95.23 21 0 Normal
09/07/2026 11 PM PDT 95.23 21 0 Normal
09/08/2026 12 AM PDT 95.23 21 0 Normal
09/08/2026 01 AM PDT 95.23 21 0 Normal
09/08/2026 02 AM PDT 95.23 21 0 Normal
09/08/2026 03 AM PDT 95.23 21 0 Normal
09/08/2026 04 AM PDT 95.23 21 0 Normal
09/08/2026 05 AM PDT 95.23 21 0 Normal
#
# NOTE 1: Stages are rounded to the nearest hundredth (.01) of a foot.
# NOTE 2: Flows are rounded to the nearest (1) cfs.
# NOTE 3: Trends are determined using hourly change in unrounded stage and flow.
# NOTE 4: Maximum Values are determined using unrounded stage and flow.
|